Terminal Aerodrome Forecast
Issued by NWS Cheyenne, WY

Home | Current Version | Previous Version | Text Only | Print | Product List | Glossary On
Versions: 1 2 3 4 5 6 7 8 9 10 11 12 13 14 15 16 17 18 19 20
000
FTUS45 KCYS 240650 AAB
TAFCYS
TAF AMD
KCYS 240650Z 2407/2506 19005KT 4SM -SN BKN004
     FM240900 24007KT 6SM BR VCSH BKN040
     FM241200 30011KT P6SM SCT100
     FM241800 29029G39KT P6SM FEW250=

USA.gov is the U.S. government's official web portal to all federal, state and local government web resources and services.